ADDS METAR Data INFO
IDs: Format: Raw Decoded Include TAF

Data at: 0942 UTC 25 Jun 2018

KTAD 250854Z AUTO 22005KT 10SM CLR 10/07 A3020 RMK AO2 SLP159 T01000072 53004
KTAD 250754Z AUTO 25003KT 10SM CLR 10/08 A3019 RMK AO2 SLP156 T01000083
KTAD 250654Z AUTO 30004KT 10SM CLR 12/08 A3018 RMK AO2 SLP153 T01170078 402670111
KTAD 250554Z AUTO 00000KT 10SM CLR 12/09 A3018 RMK AO2 SLP156 60033 T01220089 10217 20111 58005
KTAD 250454Z AUTO 31004KT 10SM OVC060 13/11 A3019 RMK AO2 SLP158 T01330106
KTAD 250354Z AUTO 33005KT 10SM CLR 13/09 A3020 RMK AO2 SLP168 T01330094
KTAD 250254Z AUTO 24004KT 10SM BKN044 OVC055 14/10 A3020 RMK AO2 LTG DSNT SE SLP171 60033 T01390100 51049
KTAD 250154Z AUTO 30005KT 10SM BKN038 OVC049 14/11 A3017 RMK AO2 PK WND 01029/0056 LTG DSNT E AND SE RAE14 TSE19 PRESRR SLP160 P0000 T01390111
KTAD 250125Z AUTO 31011G14KT 10SM SCT032 OVC046 13/11 A3016 RMK AO2 PK WND 01029/0056 LTG DSNT NE-S RAE14 TSE19 P0000 T01330106
KTAD 250116Z AUTO VRB04G15KT 10SM TS FEW022 SCT042 OVC050 12/11 A3015 RMK AO2 PK WND 01029/0056 LTG DSNT NE-SE RAE14 PRESRR P0000 T01220111
KTAD 250106Z AUTO 02013G28KT 10SM -TSRA FEW003 BKN019 OVC050 12/11 A3011 RMK AO2 PK WND 01029/0056 LTG DSNT NE-SE P0000 T01170111
KTAD 250059Z AUTO 01021G29KT 2SM -TSRA BR FEW005 BKN023 OVC065 11/11 A3011 RMK AO2 PK WND 01029/0056 LTG DSNT NE-SE P0000 T01110106
KTAD 250056Z AUTO 01020G36KT 1/2SM -TSRA FG SCT012 BKN030 OVC065 11/11 A3011 RMK AO2 PK WND 01029/0056 LTG DSNT NE AND SE AND NW P0000 T01110111
KTAD 250054Z AUTO 36020G40KT 1/4SM +TSRA FG BKN012 BKN038 OVC110 11/11 A3012 RMK AO2 PK WND 03040/0045 LTG DSNT ALQDS RAB31 TSB24 SLP147 P0033 T01110111
KTAD 250049Z AUTO 01023G40KT 1/4SM +TSRA FG BKN007 BKN039 OVC110 12/12 A3011 RMK AO2 PK WND 03040/0045 LTG DSNT ALQDS RAB31 TSB24 P0032
KTAD 250047Z AUTO 01029G40KT 1/4SM +TSRA FG SCT007 BKN030 OVC110 12/12 A3011 RMK AO2 PK WND 03040/0045 LTG DSNT ALQDS RAB31 TSB24 P0029 T01220117
KTAD 250042Z AUTO 36019G32KT 1 1/2SM +TSRA BR FEW009 SCT030 BKN050 13/12 A3013 RMK AO2 PK WND 36032/0040 LTG DSNT ALQDS RAB31 TSB24 PRESRR P0006 T01330117
KTAD 250024Z AUTO 14014G26KT 10SM TS SCT110 21/13 A3000 RMK AO2 PK WND 15026/0020 LTG DSNT NW-NE TSB24 PRESFR T02110128
KTAD 242354Z AUTO 13018G23KT 10SM CLR 22/13 A3003 RMK AO2 LTG DSNT E AND SE TSB23E38 SLP096 60000 T02170128 10267 20211 53024
KTAD 242344Z AUTO 11013KT 10SM FEW050 22/13 A3002 RMK AO2 LTG DSNT E-S TSB23E38 T02220128
KTAD 242329Z AUTO 11015G23KT 10SM TS BKN050 BKN070 23/13 A3001 RMK AO2 LTG DSNT NE-S TSB23 T02280128
KTAD 242302Z AUTO 07010KT 10SM OVC055 24/11 A3000 RMK AO2 LTG DSNT ALQDS T02440111
KTAD 242254Z AUTO 07009KT 10SM VCTS OVC055 24/12 A2999 RMK AO2 LTG DSNT ALQDS RAB18E28 SLP075 P0000 T02440117
KTAD 242247Z AUTO 05009KT 10SM VCTS BKN050 BKN110 24/12 A3000 RMK AO2 LTG DSNT ALQDS RAB18E28 P0000 T02440117
KTAD 242154Z AUTO 05009KT 020V080 10SM BKN055 26/11 A2997 RMK AO2 SLP069 T02560111
KTAD 242054Z AUTO 11012G21KT 10SM CLR 26/12 A2995 RMK AO2 WSHFT 2033 SLP064 T02560117 55017
KTAD 241954Z AUTO 09008KT 10SM CLR 26/10 A2997 RMK AO2 SLP068 T02560100
KTAD 241854Z AUTO 10SM FEW045 23/10 A3001 RMK AO2 SLP081 T02330100
KTAD 241754Z AUTO 10007KT 10SM SCT035 22/11 A3003 RMK AO2 SLP086 T02170106 10228 20156 58014
KTAD 241654Z AUTO 02005KT 10SM BKN031 21/11 A3005 RMK AO2 SLP092 T02060106
KTAD 241554Z AUTO 33007KT 10SM SCT020 BKN043 18/11 A3006 RMK AO2 SLP096 T01780111
KTAD 241454Z AUTO 36012KT 10SM OVC021 16/11 A3008 RMK AO2 SLP102 T01610106 53009
KTAD 241354Z AUTO 32012KT 10SM OVC022 16/11 A3007 RMK AO2 SLP098 T01610106
KTAD 241254Z AUTO 33014KT 10SM BKN024 16/09 A3005 RMK AO2 SLP088 T01560094
KTAD 241229Z AUTO 32010KT 10SM FEW002 SCT025 16/09 A3004 RMK AO2 T01560089
KTAD 241218Z AUTO 32010KT 10SM FEW002 BKN025 16/08 A3003 RMK AO2 T01560083
KTAD 241154Z AUTO 32010KT 10SM BKN025 16/08 A3003 RMK AO2 SLP083 T01560083 10211 20128 51046
KTAD 241124Z AUTO 33011KT 10SM FEW002 SCT028 16/08 A3002 RMK AO2 T01560083
KTAD 241105Z AUTO 33013KT 10SM FEW002 BKN021 BKN028 16/09 A3000 RMK AO2 T01610094
KTAD 241054Z AUTO 33013G23KT 10SM BKN019 OVC025 17/10 A2999 RMK AO2 SLP066 T01670100
KTAD 241029Z AUTO 32011KT 10SM BKN015 16/12 A2997 RMK AO2 T01610122
KTAD 240954Z AUTO 31011KT 10SM CLR 15/10 A2994 RMK AO2 SLP047 T01500100
KTAD 240854Z AUTO 30005KT 10SM CLR 13/07 A2987 RMK AO2 SLP027 T01330072 58007
KTAD 240754Z AUTO 10007KT 10SM CLR 15/07 A2990 RMK AO2 SLP033 T01500072
KTAD 240654Z AUTO 32007KT 10SM CLR 18/09 A2990 RMK AO2 SLP031 T01780089 403280122
KTAD 240554Z AUTO 30010KT 10SM CLR 21/08 A2990 RMK AO2 SLP026 T02110083 10306 20211 51017
KTAD 240454Z AUTO 29010KT 10SM CLR 24/00 A2989 RMK AO2 SLP025 T02390000
KTAD 240354Z AUTO 00000KT 10SM CLR 25/08 A2987 RMK AO2 SLP020 T02500078
KTAD 240254Z AUTO 21010G23KT 10SM CLR 28/07 A2984 RMK AO2 PK WND 20028/0157 SLP010 T02780067 53008
KTAD 240154Z AUTO 19017G28KT 10SM CLR 28/09 A2982 RMK AO2 PK WND 19033/0109 SLP006 T02830094
KTAD 240054Z AUTO 20021G31KT 10SM CLR 29/08 A2980 RMK AO2 PK WND 19038/0031 SLP004 T02940083
KTAD 232354Z AUTO 19016G25KT 10SM SCT110 30/08 A2981 RMK AO2 PK WND 18028/2303 SLP008 T03000078 10328 20283 56013
KTAD 232254Z AUTO 10009KT 10SM BKN100 30/08 A2982 RMK AO2 PK WND 17029/2220 LTG DSNT E AND SE SLP010 T03000078
KTAD 232246Z AUTO 11011G20KT 10SM SCT110 30/07 A2983 RMK AO2 PK WND 17029/2220 LTG DSNT SE T03000072
KTAD 232231Z AUTO 13016G22KT 10SM VCTS FEW100 31/07 A2983 RMK AO2 PK WND 17029/2220 LTG DSNT SE T03060072
KTAD 232216Z AUTO 17015G25KT 10SM CLR 33/06 A2984 RMK AO2 LTG DSNT E AND SE T03280061
KTAD 232201Z AUTO 25004G16KT 10SM VCTS CLR 32/06 A2984 RMK AO2 LTG DSNT E T03170056
KTAD 232154Z AUTO 15010KT 10SM CLR 32/06 A2984 RMK AO2 LTG DSNT E SLP016 T03170056